Terminal Aerodrome Forecast
Issued by NWS

Home | Current Version | Previous Version | Text Only | Print | Product List | Glossary On
Versions: 1 2 3 4 5 6 7 8 9 10 11 12 13 14 15 16
000
FTAK31 PAJN 251122
TAFAKT
TAF
PAKT 251122Z 2512/2612 14013KT P6SM -RA SCT025 BKN035 OVC045
      TEMPO 2512/2516 14013G23KT 3SM RA BR SCT015 OVC025
     FM251600 14013G23KT 6SM -RA BR SCT015 OVC025
     FM252100 14012KT 6SM -RA BR OVC025
     FM260300 14007KT P6SM VCSH SCT025 BKN050
      AMD LTD TO CLD VIS AND WIND 2512/2515=

USA.gov is the U.S. government's official web portal to all federal, state and local government web resources and services.